sensor_id;sensor_type;location;lat;lon;timestamp;temperature;humidity
68274;SHT30;55104;47.356;19.448;2023-06-22T00:01:41;21.99;79.90
68274;SHT30;55104;47.356;19.448;2023-06-22T00:04:44;22.03;80.09
68274;SHT30;55104;47.356;19.448;2023-06-22T00:07:46;22.09;80.07
68274;SHT30;55104;47.356;19.448;2023-06-22T00:10:48;22.09;79.89
68274;SHT30;55104;47.356;19.448;2023-06-22T00:13:50;22.02;80.40
68274;SHT30;55104;47.356;19.448;2023-06-22T00:16:52;22.09;80.38
68274;SHT30;55104;47.356;19.448;2023-06-22T00:19:58;22.03;80.57
68274;SHT30;55104;47.356;19.448;2023-06-22T00:23:03;21.88;81.28
68274;SHT30;55104;47.356;19.448;2023-06-22T00:26:09;21.91;81.54
68274;SHT30;55104;47.356;19.448;2023-06-22T00:29:13;21.89;81.56
68274;SHT30;55104;47.356;19.448;2023-06-22T00:32:15;21.92;81.14
68274;SHT30;55104;47.356;19.448;2023-06-22T00:35:17;21.91;81.62
68274;SHT30;55104;47.356;19.448;2023-06-22T00:38:20;21.91;82.05
68274;SHT30;55104;47.356;19.448;2023-06-22T00:41:22;21.86;82.60
68274;SHT30;55104;47.356;19.448;2023-06-22T00:44:24;21.78;82.93
68274;SHT30;55104;47.356;19.448;2023-06-22T00:47:27;21.92;82.21
68274;SHT30;55104;47.356;19.448;2023-06-22T00:50:31;21.92;82.14
68274;SHT30;55104;47.356;19.448;2023-06-22T00:53:37;21.78;82.64
68274;SHT30;55104;47.356;19.448;2023-06-22T00:56:40;21.77;82.80
68274;SHT30;55104;47.356;19.448;2023-06-22T00:59:45;21.71;83.36
68274;SHT30;55104;47.356;19.448;2023-06-22T01:02:47;21.73;82.06
68274;SHT30;55104;47.356;19.448;2023-06-22T01:05:59;21.79;82.59
68274;SHT30;55104;47.356;19.448;2023-06-22T01:09:19;21.77;83.03
68274;SHT30;55104;47.356;19.448;2023-06-22T01:12:22;21.82;82.55
68274;SHT30;55104;47.356;19.448;2023-06-22T01:15:45;21.81;82.13
68274;SHT30;55104;47.356;19.448;2023-06-22T01:18:55;21.85;82.10
68274;SHT30;55104;47.356;19.448;2023-06-22T01:22:00;21.79;82.29
68274;SHT30;55104;47.356;19.448;2023-06-22T01:25:09;21.78;82.64
68274;SHT30;55104;47.356;19.448;2023-06-22T01:31:24;21.77;83.07
68274;SHT30;55104;47.356;19.448;2023-06-22T01:34:27;21.82;82.87
68274;SHT30;55104;47.356;19.448;2023-06-22T01:37:32;21.78;83.04
68274;SHT30;55104;47.356;19.448;2023-06-22T01:40:36;21.77;82.97
68274;SHT30;55104;47.356;19.448;2023-06-22T01:43:39;21.73;83.37
68274;SHT30;55104;47.356;19.448;2023-06-22T01:46:41;21.67;83.59
68274;SHT30;55104;47.356;19.448;2023-06-22T01:49:44;21.59;83.99
68274;SHT30;55104;47.356;19.448;2023-06-22T01:52:46;21.57;83.95
68274;SHT30;55104;47.356;19.448;2023-06-22T01:55:49;21.59;83.79
68274;SHT30;55104;47.356;19.448;2023-06-22T01:59:12;21.62;83.83
68274;SHT30;55104;47.356;19.448;2023-06-22T02:02:19;21.67;84.23
68274;SHT30;55104;47.356;19.448;2023-06-22T02:05:23;21.71;84.07
68274;SHT30;55104;47.356;19.448;2023-06-22T02:08:30;21.62;84.33
68274;SHT30;55104;47.356;19.448;2023-06-22T02:11:34;21.57;84.45
68274;SHT30;55104;47.356;19.448;2023-06-22T02:14:38;21.51;84.57
68274;SHT30;55104;47.356;19.448;2023-06-22T02:17:42;21.53;84.42
68274;SHT30;55104;47.356;19.448;2023-06-22T02:20:47;21.51;84.57
68274;SHT30;55104;47.356;19.448;2023-06-22T02:23:49;21.47;84.75
68274;SHT30;55104;47.356;19.448;2023-06-22T02:26:51;21.30;85.07
68274;SHT30;55104;47.356;19.448;2023-06-22T02:29:53;21.30;84.83
68274;SHT30;55104;47.356;19.448;2023-06-22T02:32:55;21.30;85.18
68274;SHT30;55104;47.356;19.448;2023-06-22T02:36:01;21.26;85.42
68274;SHT30;55104;47.356;19.448;2023-06-22T02:39:07;21.26;85.81
68274;SHT30;55104;47.356;19.448;2023-06-22T02:42:09;21.26;86.11
68274;SHT30;55104;47.356;19.448;2023-06-22T02:45:12;21.29;85.71
68274;SHT30;55104;47.356;19.448;2023-06-22T02:48:17;21.29;85.62
68274;SHT30;55104;47.356;19.448;2023-06-22T02:51:19;21.36;85.46
68274;SHT30;55104;47.356;19.448;2023-06-22T02:54:22;21.43;85.83
68274;SHT30;55104;47.356;19.448;2023-06-22T02:57:26;21.46;85.20
68274;SHT30;55104;47.356;19.448;2023-06-22T03:00:28;21.47;85.33
68274;SHT30;55104;47.356;19.448;2023-06-22T03:03:32;21.46;85.44
68274;SHT30;55104;47.356;19.448;2023-06-22T03:06:35;21.41;84.97
68274;SHT30;55104;47.356;19.448;2023-06-22T03:09:38;21.48;85.17
68274;SHT30;55104;47.356;19.448;2023-06-22T03:12:41;21.48;84.95
68274;SHT30;55104;47.356;19.448;2023-06-22T03:15:43;21.47;84.79
68274;SHT30;55104;47.356;19.448;2023-06-22T03:18:46;21.46;84.92
68274;SHT30;55104;47.356;19.448;2023-06-22T03:21:48;21.47;85.19
68274;SHT30;55104;47.356;19.448;2023-06-22T03:24:50;21.47;85.37
68274;SHT30;55104;47.356;19.448;2023-06-22T03:27:52;21.48;85.61
68274;SHT30;55104;47.356;19.448;2023-06-22T03:31:00;21.50;85.38
68274;SHT30;55104;47.356;19.448;2023-06-22T03:34:04;21.54;85.09
68274;SHT30;55104;47.356;19.448;2023-06-22T03:37:06;21.57;84.98
68274;SHT30;55104;47.356;19.448;2023-06-22T03:40:08;21.64;84.79
68274;SHT30;55104;47.356;19.448;2023-06-22T03:43:10;21.68;85.28
68274;SHT30;55104;47.356;19.448;2023-06-22T03:46:12;21.71;85.09
68274;SHT30;55104;47.356;19.448;2023-06-22T03:49:14;21.78;84.25
68274;SHT30;55104;47.356;19.448;2023-06-22T03:52:17;21.88;84.42
68274;SHT30;55104;47.356;19.448;2023-06-22T03:55:22;21.89;84.68
68274;SHT30;55104;47.356;19.448;2023-06-22T03:58:24;21.98;83.39
68274;SHT30;55104;47.356;19.448;2023-06-22T04:01:26;22.06;83.87
68274;SHT30;55104;47.356;19.448;2023-06-22T04:04:28;22.10;84.21
68274;SHT30;55104;47.356;19.448;2023-06-22T04:07:30;22.16;83.34
68274;SHT30;55104;47.356;19.448;2023-06-22T04:10:32;22.30;82.99
68274;SHT30;55104;47.356;19.448;2023-06-22T04:13:34;22.46;82.10
68274;SHT30;55104;47.356;19.448;2023-06-22T04:16:36;22.51;82.13
68274;SHT30;55104;47.356;19.448;2023-06-22T04:19:38;22.57;81.99
68274;SHT30;55104;47.356;19.448;2023-06-22T04:22:40;22.64;82.39
68274;SHT30;55104;47.356;19.448;2023-06-22T04:25:42;22.72;81.74
68274;SHT30;55104;47.356;19.448;2023-06-22T04:28:44;22.81;80.82
68274;SHT30;55104;47.356;19.448;2023-06-22T04:31:53;22.94;80.57
68274;SHT30;55104;47.356;19.448;2023-06-22T04:34:55;23.04;80.85
68274;SHT30;55104;47.356;19.448;2023-06-22T04:37:58;23.16;80.73
68274;SHT30;55104;47.356;19.448;2023-06-22T04:41:00;23.24;80.64
68274;SHT30;55104;47.356;19.448;2023-06-22T04:44:04;23.42;79.20
68274;SHT30;55104;47.356;19.448;2023-06-22T04:47:07;23.54;77.19
68274;SHT30;55104;47.356;19.448;2023-06-22T04:50:10;23.61;75.60
68274;SHT30;55104;47.356;19.448;2023-06-22T04:53:12;23.66;74.62
68274;SHT30;55104;47.356;19.448;2023-06-22T04:56:14;23.79;75.26
68274;SHT30;55104;47.356;19.448;2023-06-22T04:59:19;23.91;77.18
68274;SHT30;55104;47.356;19.448;2023-06-22T05:02:21;24.08;76.40
68274;SHT30;55104;47.356;19.448;2023-06-22T05:05:24;24.29;76.21
68274;SHT30;55104;47.356;19.448;2023-06-22T05:08:26;24.57;75.96
68274;SHT30;55104;47.356;19.448;2023-06-22T05:11:30;24.74;75.85
68274;SHT30;55104;47.356;19.448;2023-06-22T05:14:32;24.98;74.94
68274;SHT30;55104;47.356;19.448;2023-06-22T05:17:35;25.10;74.71
68274;SHT30;55104;47.356;19.448;2023-06-22T05:20:38;25.35;75.03
68274;SHT30;55104;47.356;19.448;2023-06-22T05:23:40;25.31;75.10
68274;SHT30;55104;47.356;19.448;2023-06-22T05:26:42;25.49;74.31
68274;SHT30;55104;47.356;19.448;2023-06-22T05:29:44;25.86;71.89
68274;SHT30;55104;47.356;19.448;2023-06-22T05:32:45;25.97;71.01
68274;SHT30;55104;47.356;19.448;2023-06-22T05:35:48;26.29;71.45
68274;SHT30;55104;47.356;19.448;2023-06-22T05:38:50;26.35;70.25
68274;SHT30;55104;47.356;19.448;2023-06-22T05:41:53;26.62;69.82
68274;SHT30;55104;47.356;19.448;2023-06-22T05:44:54;26.70;66.37
68274;SHT30;55104;47.356;19.448;2023-06-22T05:47:57;26.60;66.97
68274;SHT30;55104;47.356;19.448;2023-06-22T05:50:59;26.98;66.55
68274;SHT30;55104;47.356;19.448;2023-06-22T05:54:01;27.18;66.49
68274;SHT30;55104;47.356;19.448;2023-06-22T05:57:03;27.24;65.08
68274;SHT30;55104;47.356;19.448;2023-06-22T06:00:06;27.39;66.13
68274;SHT30;55104;47.356;19.448;2023-06-22T06:03:12;27.87;63.80
68274;SHT30;55104;47.356;19.448;2023-06-22T06:06:16;27.73;62.72
68274;SHT30;55104;47.356;19.448;2023-06-22T06:09:18;27.98;62.38
68274;SHT30;55104;47.356;19.448;2023-06-22T06:12:20;28.31;60.85
68274;SHT30;55104;47.356;19.448;2023-06-22T06:15:23;28.01;63.60
68274;SHT30;55104;47.356;19.448;2023-06-22T06:18:25;28.15;62.82
68274;SHT30;55104;47.356;19.448;2023-06-22T06:21:27;27.49;63.97
68274;SHT30;55104;47.356;19.448;2023-06-22T06:24:31;27.21;65.37
68274;SHT30;55104;47.356;19.448;2023-06-22T06:27:33;27.31;64.51
68274;SHT30;55104;47.356;19.448;2023-06-22T06:30:35;27.15;67.25
68274;SHT30;55104;47.356;19.448;2023-06-22T06:33:39;26.84;63.85
68274;SHT30;55104;47.356;19.448;2023-06-22T06:36:41;26.96;63.73
68274;SHT30;55104;47.356;19.448;2023-06-22T06:39:43;26.93;64.65
68274;SHT30;55104;47.356;19.448;2023-06-22T06:42:48;27.01;64.05
68274;SHT30;55104;47.356;19.448;2023-06-22T06:45:51;26.96;64.12
68274;SHT30;55104;47.356;19.448;2023-06-22T06:48:53;27.14;62.57
68274;SHT30;55104;47.356;19.448;2023-06-22T06:51:55;27.34;63.60
68274;SHT30;55104;47.356;19.448;2023-06-22T06:54:59;27.46;63.98
68274;SHT30;55104;47.356;19.448;2023-06-22T06:58:02;27.49;61.07
68274;SHT30;55104;47.356;19.448;2023-06-22T07:01:06;27.62;62.45
68274;SHT30;55104;47.356;19.448;2023-06-22T07:04:08;27.73;63.70
68274;SHT30;55104;47.356;19.448;2023-06-22T07:07:10;27.92;63.28
68274;SHT30;55104;47.356;19.448;2023-06-22T07:10:12;28.11;60.88
68274;SHT30;55104;47.356;19.448;2023-06-22T07:13:14;28.25;60.44
68274;SHT30;55104;47.356;19.448;2023-06-22T07:16:16;28.48;59.71
68274;SHT30;55104;47.356;19.448;2023-06-22T07:19:25;28.35;57.44
68274;SHT30;55104;47.356;19.448;2023-06-22T07:22:28;28.31;57.24
68274;SHT30;55104;47.356;19.448;2023-06-22T07:25:30;28.68;57.46
68274;SHT30;55104;47.356;19.448;2023-06-22T07:28:32;28.75;57.52
68274;SHT30;55104;47.356;19.448;2023-06-22T07:31:38;28.34;57.59
68274;SHT30;55104;47.356;19.448;2023-06-22T07:34:42;28.52;58.40
68274;SHT30;55104;47.356;19.448;2023-06-22T07:37:45;28.96;57.56
68274;SHT30;55104;47.356;19.448;2023-06-22T07:40:47;29.11;56.80
68274;SHT30;55104;47.356;19.448;2023-06-22T07:43:49;29.30;55.15
68274;SHT30;55104;47.356;19.448;2023-06-22T07:46:52;29.48;54.26
68274;SHT30;55104;47.356;19.448;2023-06-22T07:49:55;29.66;54.97
68274;SHT30;55104;47.356;19.448;2023-06-22T07:52:59;29.75;56.90
68274;SHT30;55104;47.356;19.448;2023-06-22T07:56:01;29.82;53.96
68274;SHT30;55104;47.356;19.448;2023-06-22T07:59:08;30.02;53.63
68274;SHT30;55104;47.356;19.448;2023-06-22T08:02:11;29.85;52.93
68274;SHT30;55104;47.356;19.448;2023-06-22T08:05:14;29.76;54.53
68274;SHT30;55104;47.356;19.448;2023-06-22T08:08:35;29.83;52.61
68274;SHT30;55104;47.356;19.448;2023-06-22T08:11:37;29.93;52.77
68274;SHT30;55104;47.356;19.448;2023-06-22T08:14:39;29.66;52.80
68274;SHT30;55104;47.356;19.448;2023-06-22T08:17:41;29.79;50.54
68274;SHT30;55104;47.356;19.448;2023-06-22T08:20:44;29.95;50.82
68274;SHT30;55104;47.356;19.448;2023-06-22T08:23:46;30.26;52.43
68274;SHT30;55104;47.356;19.448;2023-06-22T08:26:51;30.43;53.23
68274;SHT30;55104;47.356;19.448;2023-06-22T08:29:53;30.88;51.85
68274;SHT30;55104;47.356;19.448;2023-06-22T08:32:59;31.15;51.79
68274;SHT30;55104;47.356;19.448;2023-06-22T08:36:02;31.25;50.39
68274;SHT30;55104;47.356;19.448;2023-06-22T08:39:04;31.25;50.81
68274;SHT30;55104;47.356;19.448;2023-06-22T08:42:06;31.41;50.44
68274;SHT30;55104;47.356;19.448;2023-06-22T08:45:09;31.50;51.71
68274;SHT30;55104;47.356;19.448;2023-06-22T08:48:11;31.26;49.91
68274;SHT30;55104;47.356;19.448;2023-06-22T08:51:13;31.12;52.74
68274;SHT30;55104;47.356;19.448;2023-06-22T08:54:15;31.27;53.22
68274;SHT30;55104;47.356;19.448;2023-06-22T08:57:17;31.70;52.70
68274;SHT30;55104;47.356;19.448;2023-06-22T09:00:20;31.60;52.76
68274;SHT30;55104;47.356;19.448;2023-06-22T09:03:22;31.82;50.26
68274;SHT30;55104;47.356;19.448;2023-06-22T09:06:28;31.44;54.35
68274;SHT30;55104;47.356;19.448;2023-06-22T09:09:34;31.41;52.06
68274;SHT30;55104;47.356;19.448;2023-06-22T09:12:36;31.47;53.52
68274;SHT30;55104;47.356;19.448;2023-06-22T09:15:39;31.70;53.63
68274;SHT30;55104;47.356;19.448;2023-06-22T09:18:41;31.89;53.21
68274;SHT30;55104;47.356;19.448;2023-06-22T09:21:43;31.93;52.33
68274;SHT30;55104;47.356;19.448;2023-06-22T09:24:45;32.54;52.39
68274;SHT30;55104;47.356;19.448;2023-06-22T09:27:47;32.40;51.20
68274;SHT30;55104;47.356;19.448;2023-06-22T09:30:50;32.53;50.72
68274;SHT30;55104;47.356;19.448;2023-06-22T09:33:53;32.65;51.86
68274;SHT30;55104;47.356;19.448;2023-06-22T09:36:55;32.61;51.67
68274;SHT30;55104;47.356;19.448;2023-06-22T09:39:59;32.60;52.40
68274;SHT30;55104;47.356;19.448;2023-06-22T09:43:01;32.78;50.97
68274;SHT30;55104;47.356;19.448;2023-06-22T09:46:03;32.92;51.70
68274;SHT30;55104;47.356;19.448;2023-06-22T09:49:05;33.04;49.97
68274;SHT30;55104;47.356;19.448;2023-06-22T09:52:07;32.52;49.86
68274;SHT30;55104;47.356;19.448;2023-06-22T09:55:09;32.94;51.25
68274;SHT30;55104;47.356;19.448;2023-06-22T09:58:11;32.78;50.97
68274;SHT30;55104;47.356;19.448;2023-06-22T10:01:13;33.16;50.03
68274;SHT30;55104;47.356;19.448;2023-06-22T10:04:18;33.36;52.09
68274;SHT30;55104;47.356;19.448;2023-06-22T10:07:21;33.62;49.66
68274;SHT30;55104;47.356;19.448;2023-06-22T10:10:23;33.59;49.95
68274;SHT30;55104;47.356;19.448;2023-06-22T10:13:25;33.11;49.76
68274;SHT30;55104;47.356;19.448;2023-06-22T10:16:31;32.84;50.54
68274;SHT30;55104;47.356;19.448;2023-06-22T10:19:33;33.22;50.81
68274;SHT30;55104;47.356;19.448;2023-06-22T10:22:40;32.85;49.59
68274;SHT30;55104;47.356;19.448;2023-06-22T10:25:42;33.09;49.88
68274;SHT30;55104;47.356;19.448;2023-06-22T10:28:44;33.30;50.08
68274;SHT30;55104;47.356;19.448;2023-06-22T10:31:46;33.07;48.84
68274;SHT30;55104;47.356;19.448;2023-06-22T10:34:48;33.12;48.84
68274;SHT30;55104;47.356;19.448;2023-06-22T10:37:50;33.39;49.86
68274;SHT30;55104;47.356;19.448;2023-06-22T10:40:52;33.33;49.46
68274;SHT30;55104;47.356;19.448;2023-06-22T10:43:54;33.66;50.62
68274;SHT30;55104;47.356;19.448;2023-06-22T10:46:56;34.02;49.19
68274;SHT30;55104;47.356;19.448;2023-06-22T10:50:01;34.17;48.45
68274;SHT30;55104;47.356;19.448;2023-06-22T10:53:03;34.04;48.99
68274;SHT30;55104;47.356;19.448;2023-06-22T10:56:05;33.66;49.71
68274;SHT30;55104;47.356;19.448;2023-06-22T10:59:07;34.08;49.92
68274;SHT30;55104;47.356;19.448;2023-06-22T11:02:09;34.07;49.06
68274;SHT30;55104;47.356;19.448;2023-06-22T11:05:11;34.19;49.24
68274;SHT30;55104;47.356;19.448;2023-06-22T11:08:13;34.05;48.41
68274;SHT30;55104;47.356;19.448;2023-06-22T11:11:15;34.43;49.90
68274;SHT30;55104;47.356;19.448;2023-06-22T11:14:19;34.35;49.01
68274;SHT30;55104;47.356;19.448;2023-06-22T11:17:23;34.76;48.23
68274;SHT30;55104;47.356;19.448;2023-06-22T11:20:25;34.76;48.72
68274;SHT30;55104;47.356;19.448;2023-06-22T11:23:27;34.93;47.57
68274;SHT30;55104;47.356;19.448;2023-06-22T11:26:30;34.32;46.89
68274;SHT30;55104;47.356;19.448;2023-06-22T11:29:33;34.45;48.30
68274;SHT30;55104;47.356;19.448;2023-06-22T11:32:56;34.76;47.46
68274;SHT30;55104;47.356;19.448;2023-06-22T11:35:59;34.86;47.52
68274;SHT30;55104;47.356;19.448;2023-06-22T11:39:02;35.11;48.04
68274;SHT30;55104;47.356;19.448;2023-06-22T11:42:05;34.80;47.04
68274;SHT30;55104;47.356;19.448;2023-06-22T11:45:07;35.00;47.98
68274;SHT30;55104;47.356;19.448;2023-06-22T11:48:09;35.27;46.10
68274;SHT30;55104;47.356;19.448;2023-06-22T11:51:11;34.46;48.02
68274;SHT30;55104;47.356;19.448;2023-06-22T11:54:13;34.42;46.98
68274;SHT30;55104;47.356;19.448;2023-06-22T11:57:15;34.80;47.21
68274;SHT30;55104;47.356;19.448;2023-06-22T12:00:18;35.21;46.33
68274;SHT30;55104;47.356;19.448;2023-06-22T12:03:20;35.01;47.82
68274;SHT30;55104;47.356;19.448;2023-06-22T12:06:26;35.10;47.29
68274;SHT30;55104;47.356;19.448;2023-06-22T12:09:28;35.00;46.81
68274;SHT30;55104;47.356;19.448;2023-06-22T12:12:30;35.03;45.42
68274;SHT30;55104;47.356;19.448;2023-06-22T12:15:32;35.14;46.22
68274;SHT30;55104;47.356;19.448;2023-06-22T12:18:34;34.67;46.38
68274;SHT30;55104;47.356;19.448;2023-06-22T12:21:37;34.86;46.63
68274;SHT30;55104;47.356;19.448;2023-06-22T12:24:39;35.11;46.60
68274;SHT30;55104;47.356;19.448;2023-06-22T12:27:41;35.24;46.50
68274;SHT30;55104;47.356;19.448;2023-06-22T12:30:43;35.08;44.43
68274;SHT30;55104;47.356;19.448;2023-06-22T12:33:45;35.51;45.61
68274;SHT30;55104;47.356;19.448;2023-06-22T12:36:49;35.41;44.95
68274;SHT30;55104;47.356;19.448;2023-06-22T12:39:54;34.36;45.19
68274;SHT30;55104;47.356;19.448;2023-06-22T12:42:56;34.43;45.46
68274;SHT30;55104;47.356;19.448;2023-06-22T12:45:58;34.45;46.80
68274;SHT30;55104;47.356;19.448;2023-06-22T12:49:00;34.36;45.29
68274;SHT30;55104;47.356;19.448;2023-06-22T12:52:08;34.67;46.23
68274;SHT30;55104;47.356;19.448;2023-06-22T12:55:10;34.91;46.73
68274;SHT30;55104;47.356;19.448;2023-06-22T12:58:12;35.28;46.30
68274;SHT30;55104;47.356;19.448;2023-06-22T13:01:14;35.38;45.19
68274;SHT30;55104;47.356;19.448;2023-06-22T13:04:16;34.82;43.54
68274;SHT30;55104;47.356;19.448;2023-06-22T13:07:20;34.83;46.40
68274;SHT30;55104;47.356;19.448;2023-06-22T13:10:24;35.01;46.79
68274;SHT30;55104;47.356;19.448;2023-06-22T13:13:26;34.94;46.24
68274;SHT30;55104;47.356;19.448;2023-06-22T13:16:31;35.31;45.95
68274;SHT30;55104;47.356;19.448;2023-06-22T13:19:33;35.42;45.39
68274;SHT30;55104;47.356;19.448;2023-06-22T13:22:35;34.63;45.80
68274;SHT30;55104;47.356;19.448;2023-06-22T13:25:42;34.11;48.16
68274;SHT30;55104;47.356;19.448;2023-06-22T13:28:44;33.66;47.57
68274;SHT30;55104;47.356;19.448;2023-06-22T13:31:46;33.05;48.47
68274;SHT30;55104;47.356;19.448;2023-06-22T13:34:48;32.65;49.39
68274;SHT30;55104;47.356;19.448;2023-06-22T13:37:50;32.29;49.83
68274;SHT30;55104;47.356;19.448;2023-06-22T13:40:52;32.46;50.59
68274;SHT30;55104;47.356;19.448;2023-06-22T13:43:57;32.46;49.60
68274;SHT30;55104;47.356;19.448;2023-06-22T13:46:59;32.68;49.68
68274;SHT30;55104;47.356;19.448;2023-06-22T13:50:02;33.25;50.02
68274;SHT30;55104;47.356;19.448;2023-06-22T13:53:04;33.18;50.32
68274;SHT30;55104;47.356;19.448;2023-06-22T13:56:06;33.73;48.69
68274;SHT30;55104;47.356;19.448;2023-06-22T13:59:08;34.28;48.53
68274;SHT30;55104;47.356;19.448;2023-06-22T14:02:11;34.26;47.65
68274;SHT30;55104;47.356;19.448;2023-06-22T14:05:13;34.08;48.92
68274;SHT30;55104;47.356;19.448;2023-06-22T14:08:16;33.66;49.43
68274;SHT30;55104;47.356;19.448;2023-06-22T14:11:20;33.66;48.34
68274;SHT30;55104;47.356;19.448;2023-06-22T14:14:22;33.59;48.35
68274;SHT30;55104;47.356;19.448;2023-06-22T14:17:24;33.67;48.48
68274;SHT30;55104;47.356;19.448;2023-06-22T14:20:28;33.97;49.09
68274;SHT30;55104;47.356;19.448;2023-06-22T14:23:31;34.45;48.78
68274;SHT30;55104;47.356;19.448;2023-06-22T14:26:33;34.76;48.03
68274;SHT30;55104;47.356;19.448;2023-06-22T14:29:36;34.71;46.40
68274;SHT30;55104;47.356;19.448;2023-06-22T14:32:38;34.73;47.35
68274;SHT30;55104;47.356;19.448;2023-06-22T14:35:40;34.86;46.85
68274;SHT30;55104;47.356;19.448;2023-06-22T14:38:42;35.18;48.61
68274;SHT30;55104;47.356;19.448;2023-06-22T14:41:44;35.46;47.27
68274;SHT30;55104;47.356;19.448;2023-06-22T14:44:46;35.07;46.51
68274;SHT30;55104;47.356;19.448;2023-06-22T14:47:49;35.58;46.47
68274;SHT30;55104;47.356;19.448;2023-06-22T14:50:51;35.30;46.85
68274;SHT30;55104;47.356;19.448;2023-06-22T14:53:53;35.00;45.91
68274;SHT30;55104;47.356;19.448;2023-06-22T14:56:55;35.13;46.39
68274;SHT30;55104;47.356;19.448;2023-06-22T14:59:57;35.00;47.10
68274;SHT30;55104;47.356;19.448;2023-06-22T15:02:59;35.15;47.37
68274;SHT30;55104;47.356;19.448;2023-06-22T15:06:02;35.03;47.97
68274;SHT30;55104;47.356;19.448;2023-06-22T15:09:04;34.97;48.01
68274;SHT30;55104;47.356;19.448;2023-06-22T15:12:07;34.63;48.36
68274;SHT30;55104;47.356;19.448;2023-06-22T15:15:13;34.64;48.21
68274;SHT30;55104;47.356;19.448;2023-06-22T15:18:15;34.57;48.09
68274;SHT30;55104;47.356;19.448;2023-06-22T15:21:17;34.66;48.15
68274;SHT30;55104;47.356;19.448;2023-06-22T15:24:19;34.18;48.08
68274;SHT30;55104;47.356;19.448;2023-06-22T15:27:23;33.74;49.15
68274;SHT30;55104;47.356;19.448;2023-06-22T15:30:25;33.67;50.75
68274;SHT30;55104;47.356;19.448;2023-06-22T15:33:27;33.71;50.26
68274;SHT30;55104;47.356;19.448;2023-06-22T15:36:29;33.80;49.92
68274;SHT30;55104;47.356;19.448;2023-06-22T15:39:31;33.88;50.33
68274;SHT30;55104;47.356;19.448;2023-06-22T15:42:33;33.94;49.82
68274;SHT30;55104;47.356;19.448;2023-06-22T15:45:35;34.09;50.14
68274;SHT30;55104;47.356;19.448;2023-06-22T15:48:37;34.19;49.72
68274;SHT30;55104;47.356;19.448;2023-06-22T15:51:40;34.22;49.52
68274;SHT30;55104;47.356;19.448;2023-06-22T15:54:43;34.17;49.97
68274;SHT30;55104;47.356;19.448;2023-06-22T15:57:45;34.00;49.47
68274;SHT30;55104;47.356;19.448;2023-06-22T16:00:48;33.98;50.78
68274;SHT30;55104;47.356;19.448;2023-06-22T16:03:53;34.09;50.19
68274;SHT30;55104;47.356;19.448;2023-06-22T16:06:55;34.04;50.56
68274;SHT30;55104;47.356;19.448;2023-06-22T16:09:57;33.94;51.03
68274;SHT30;55104;47.356;19.448;2023-06-22T16:12:59;33.84;50.94
68274;SHT30;55104;47.356;19.448;2023-06-22T16:16:01;33.84;51.01
68274;SHT30;55104;47.356;19.448;2023-06-22T16:19:04;33.88;50.88
68274;SHT30;55104;47.356;19.448;2023-06-22T16:22:06;33.71;51.52
68274;SHT30;55104;47.356;19.448;2023-06-22T16:25:08;33.64;51.43
68274;SHT30;55104;47.356;19.448;2023-06-22T16:28:10;33.37;52.49
68274;SHT30;55104;47.356;19.448;2023-06-22T16:31:12;33.41;52.41
68274;SHT30;55104;47.356;19.448;2023-06-22T16:34:14;33.23;52.06
68274;SHT30;55104;47.356;19.448;2023-06-22T16:37:16;33.21;52.33
68274;SHT30;55104;47.356;19.448;2023-06-22T16:40:18;33.14;52.82
68274;SHT30;55104;47.356;19.448;2023-06-22T16:43:22;32.95;53.07
68274;SHT30;55104;47.356;19.448;2023-06-22T16:46:24;32.85;53.83
68274;SHT30;55104;47.356;19.448;2023-06-22T16:49:26;32.78;53.81
68274;SHT30;55104;47.356;19.448;2023-06-22T16:52:28;32.77;53.52
68274;SHT30;55104;47.356;19.448;2023-06-22T16:55:30;32.59;54.38
68274;SHT30;55104;47.356;19.448;2023-06-22T16:58:35;32.41;54.79
68274;SHT30;55104;47.356;19.448;2023-06-22T17:01:51;32.30;55.56
68274;SHT30;55104;47.356;19.448;2023-06-22T17:04:54;32.26;55.74
68274;SHT30;55104;47.356;19.448;2023-06-22T17:08:02;32.20;56.34
68274;SHT30;55104;47.356;19.448;2023-06-22T17:11:05;32.17;56.73
68274;SHT30;55104;47.356;19.448;2023-06-22T17:14:09;32.02;56.86
68274;SHT30;55104;47.356;19.448;2023-06-22T17:17:16;31.86;57.14
68274;SHT30;55104;47.356;19.448;2023-06-22T17:20:19;31.68;57.63
68274;SHT30;55104;47.356;19.448;2023-06-22T17:23:22;31.62;57.73
68274;SHT30;55104;47.356;19.448;2023-06-22T17:26:25;31.44;58.16
68274;SHT30;55104;47.356;19.448;2023-06-22T17:29:31;31.36;58.79
68274;SHT30;55104;47.356;19.448;2023-06-22T17:32:34;31.23;59.43
68274;SHT30;55104;47.356;19.448;2023-06-22T17:35:48;31.07;60.75
68274;SHT30;55104;47.356;19.448;2023-06-22T17:38:50;30.76;61.38
68274;SHT30;55104;47.356;19.448;2023-06-22T17:41:53;30.43;61.77
68274;SHT30;55104;47.356;19.448;2023-06-22T17:45:00;30.40;62.35
68274;SHT30;55104;47.356;19.448;2023-06-22T17:48:07;30.23;62.82
68274;SHT30;55104;47.356;19.448;2023-06-22T17:51:13;30.09;63.86
68274;SHT30;55104;47.356;19.448;2023-06-22T17:54:15;29.95;64.09
68274;SHT30;55104;47.356;19.448;2023-06-22T17:57:17;29.85;64.59
68274;SHT30;55104;47.356;19.448;2023-06-22T18:00:20;29.68;65.24
68274;SHT30;55104;47.356;19.448;2023-06-22T18:03:25;29.61;65.69
68274;SHT30;55104;47.356;19.448;2023-06-22T18:06:28;29.54;65.91
68274;SHT30;55104;47.356;19.448;2023-06-22T18:09:30;29.43;66.12
68274;SHT30;55104;47.356;19.448;2023-06-22T18:12:34;29.27;66.64
68274;SHT30;55104;47.356;19.448;2023-06-22T18:15:37;29.11;66.89
68274;SHT30;55104;47.356;19.448;2023-06-22T18:18:39;29.07;67.15
68274;SHT30;55104;47.356;19.448;2023-06-22T18:21:45;28.92;67.31
68274;SHT30;55104;47.356;19.448;2023-06-22T18:24:49;28.80;67.51
68274;SHT30;55104;47.356;19.448;2023-06-22T18:27:52;28.72;68.03
68274;SHT30;55104;47.356;19.448;2023-06-22T18:30:55;28.59;67.99
68274;SHT30;55104;47.356;19.448;2023-06-22T18:33:58;28.49;68.21
68274;SHT30;55104;47.356;19.448;2023-06-22T18:37:03;28.35;68.40
68274;SHT30;55104;47.356;19.448;2023-06-22T18:40:10;28.25;68.85
68274;SHT30;55104;47.356;19.448;2023-06-22T18:43:21;28.15;68.93
68274;SHT30;55104;47.356;19.448;2023-06-22T18:46:33;28.01;69.07
68274;SHT30;55104;47.356;19.448;2023-06-22T18:52:40;27.86;69.24
68274;SHT30;55104;47.356;19.448;2023-06-22T18:55:44;27.79;69.41
68274;SHT30;55104;47.356;19.448;2023-06-22T18:58:55;27.72;69.58
68274;SHT30;55104;47.356;19.448;2023-06-22T19:02:01;27.63;69.65
68274;SHT30;55104;47.356;19.448;2023-06-22T19:05:18;27.55;69.74